createdAt,value
2022-09-07T00:00:15.369Z,20.90
2022-09-07T00:02:46.337Z,20.80
2022-09-07T00:05:17.312Z,20.70
2022-09-07T00:07:48.201Z,20.70
2022-09-07T00:10:19.141Z,20.70
2022-09-07T00:12:51.203Z,20.70
2022-09-07T00:15:22.112Z,20.60
2022-09-07T00:17:52.991Z,20.60
2022-09-07T00:20:23.901Z,20.60
2022-09-07T00:22:54.771Z,20.60
2022-09-07T00:25:25.709Z,20.60
2022-09-07T00:27:56.583Z,20.60
2022-09-07T00:30:27.601Z,20.50
2022-09-07T00:32:58.530Z,20.50
2022-09-07T00:35:29.415Z,20.40
2022-09-07T00:38:00.386Z,20.50
2022-09-07T00:40:31.298Z,20.60
2022-09-07T00:43:02.207Z,20.50
2022-09-07T00:45:33.326Z,20.60
2022-09-07T00:48:27.401Z,20.60
2022-09-07T00:51:10.010Z,20.80
2022-09-07T00:53:53.748Z,20.80
2022-09-07T00:56:29.932Z,20.70
2022-09-07T00:59:01.769Z,20.60
2022-09-07T01:01:34.357Z,20.60
2022-09-07T01:04:05.711Z,20.50
2022-09-07T01:06:39.783Z,20.60
2022-09-07T01:09:16.046Z,20.60
2022-09-07T01:11:51.239Z,20.60
2022-09-07T01:14:29.054Z,20.50
2022-09-07T01:17:36.469Z,20.60
2022-09-07T01:20:54.191Z,20.60
2022-09-07T01:24:06.957Z,20.60
2022-09-07T01:27:42.525Z,20.50
2022-09-07T01:30:17.702Z,20.60
2022-09-07T01:33:06.681Z,20.60
2022-09-07T01:35:42.544Z,20.70
2022-09-07T01:38:44.484Z,20.70
2022-09-07T01:41:33.458Z,20.70
2022-09-07T01:44:38.155Z,20.70
2022-09-07T01:47:21.698Z,20.70
2022-09-07T01:50:01.817Z,20.70
2022-09-07T01:53:15.539Z,20.70
2022-09-07T01:56:02.046Z,20.60
2022-09-07T01:58:38.684Z,20.70
2022-09-07T02:01:50.546Z,20.70
2022-09-07T02:04:41.904Z,20.60
2022-09-07T02:07:42.852Z,20.60
2022-09-07T02:10:30.551Z,20.60
2022-09-07T02:13:12.412Z,20.60
2022-09-07T02:15:51.465Z,20.60
2022-09-07T02:18:24.963Z,20.80
2022-09-07T02:20:59.100Z,20.80
2022-09-07T02:23:38.680Z,20.80
2022-09-07T02:26:22.212Z,20.70
2022-09-07T02:28:53.244Z,20.70
2022-09-07T02:31:24.374Z,20.60
2022-09-07T02:33:55.466Z,20.60
2022-09-07T02:36:33.396Z,20.60
2022-09-07T02:39:04.399Z,20.60
2022-09-07T02:41:41.886Z,20.60
2022-09-07T02:44:27.986Z,20.50
2022-09-07T02:47:40.970Z,20.60
2022-09-07T02:50:39.948Z,20.50
2022-09-07T02:53:40.405Z,20.50
2022-09-07T02:56:49.169Z,20.40
2022-09-07T02:59:44.822Z,20.50
2022-09-07T03:02:33.478Z,20.60
2022-09-07T03:05:43.950Z,20.50
2022-09-07T03:08:26.084Z,20.40
2022-09-07T03:10:58.594Z,20.40
2022-09-07T03:13:30.429Z,20.30
2022-09-07T03:16:01.503Z,20.30
2022-09-07T03:18:32.805Z,20.30
2022-09-07T03:21:03.921Z,20.30
2022-09-07T03:23:35.671Z,20.40
2022-09-07T03:26:06.619Z,20.50
2022-09-07T03:28:37.495Z,20.50
2022-09-07T03:31:08.453Z,20.50
2022-09-07T03:33:39.399Z,20.40
2022-09-07T03:36:10.299Z,20.30
2022-09-07T03:38:41.213Z,20.20
2022-09-07T03:41:12.809Z,20.20
2022-09-07T03:43:44.885Z,20.10
2022-09-07T03:46:19.387Z,20.10
2022-09-07T03:48:50.580Z,20.00
2022-09-07T03:51:21.470Z,20.00
2022-09-07T03:53:52.482Z,20.00
2022-09-07T03:56:25.263Z,19.90
2022-09-07T03:58:56.438Z,19.90
2022-09-07T04:01:27.954Z,19.80
2022-09-07T04:04:02.685Z,19.70
2022-09-07T04:06:33.854Z,19.70
2022-09-07T04:09:07.758Z,19.60
2022-09-07T04:11:40.432Z,19.60
2022-09-07T04:14:12.149Z,19.60
2022-09-07T04:16:44.943Z,19.50
2022-09-07T04:19:18.342Z,19.50
2022-09-07T04:21:49.393Z,19.50
2022-09-07T04:24:20.715Z,19.50
2022-09-07T04:26:52.664Z,19.50
2022-09-07T04:29:24.328Z,19.40
2022-09-07T04:31:56.006Z,19.40
2022-09-07T04:34:27.124Z,19.30
2022-09-07T04:36:58.053Z,19.30
2022-09-07T04:39:28.999Z,19.40
2022-09-07T04:41:59.898Z,19.40
2022-09-07T04:44:30.900Z,19.40
2022-09-07T04:47:01.784Z,19.40
2022-09-07T04:49:32.759Z,19.50
2022-09-07T04:52:03.749Z,19.40
2022-09-07T04:54:34.676Z,19.30
2022-09-07T04:57:05.888Z,19.30
2022-09-07T04:59:36.790Z,19.30
2022-09-07T05:02:07.743Z,19.20
2022-09-07T05:04:38.707Z,19.20
2022-09-07T05:07:09.592Z,19.20
2022-09-07T05:09:40.573Z,19.30
2022-09-07T05:12:11.463Z,19.50
2022-09-07T05:14:42.429Z,19.40
2022-09-07T05:17:13.385Z,19.50
2022-09-07T05:19:44.370Z,19.50
2022-09-07T05:22:15.316Z,19.50
2022-09-07T05:24:47.670Z,19.40
2022-09-07T05:27:18.685Z,19.50
2022-09-07T05:30:05.812Z,19.60
2022-09-07T05:32:37.232Z,19.70
2022-09-07T05:35:08.710Z,19.50
2022-09-07T05:37:39.632Z,19.40
2022-09-07T05:40:15.717Z,19.40
2022-09-07T05:42:46.651Z,19.30
2022-09-07T05:45:18.008Z,19.30
2022-09-07T05:47:50.849Z,19.40
2022-09-07T05:50:22.118Z,19.50
2022-09-07T05:52:52.989Z,19.50
2022-09-07T05:55:30.959Z,19.50
2022-09-07T05:58:01.888Z,19.60
2022-09-07T06:00:33.340Z,19.50
2022-09-07T06:03:04.605Z,19.50
2022-09-07T06:05:35.564Z,19.60
2022-09-07T06:08:06.584Z,19.60
2022-09-07T06:10:45.517Z,19.80
2022-09-07T06:13:16.469Z,19.80
2022-09-07T06:15:47.407Z,19.80
2022-09-07T06:18:18.428Z,19.90
2022-09-07T06:20:49.560Z,20.10
2022-09-07T06:23:20.489Z,20.30
2022-09-07T06:25:51.471Z,20.30
2022-09-07T06:28:32.361Z,20.40
2022-09-07T06:31:07.668Z,20.40
2022-09-07T06:33:38.922Z,20.50
2022-09-07T06:36:13.932Z,20.60
2022-09-07T06:38:45.743Z,20.80
2022-09-07T06:44:16.937Z,21.00
2022-09-07T06:47:03.911Z,21.20
2022-09-07T06:49:35.398Z,21.30
2022-09-07T06:52:06.563Z,21.40
2022-09-07T06:57:28.343Z,21.60
2022-09-07T06:59:59.328Z,21.60
2022-09-07T07:02:30.221Z,21.70
2022-09-07T07:05:01.373Z,21.90
2022-09-07T07:07:32.477Z,22.00
2022-09-07T07:10:03.644Z,21.90
2022-09-07T07:15:08.931Z,21.70
2022-09-07T07:17:40.001Z,21.70
2022-09-07T07:20:11.050Z,21.80
2022-09-07T07:22:46.495Z,21.90
2022-09-07T07:25:19.188Z,21.90
2022-09-07T07:27:50.421Z,21.90
2022-09-07T07:30:21.567Z,21.90
2022-09-07T07:32:52.931Z,22.00
2022-09-07T07:35:24.413Z,22.00
2022-09-07T07:43:46.205Z,22.30
2022-09-07T07:46:17.856Z,22.40
2022-09-07T07:48:49.149Z,22.50
2022-09-07T07:51:20.853Z,22.50
2022-09-07T07:53:51.710Z,22.50
2022-09-07T07:56:22.838Z,22.60
2022-09-07T07:58:53.824Z,22.70
2022-09-07T08:01:24.949Z,22.80
2022-09-07T08:03:55.899Z,22.90
2022-09-07T08:06:27.649Z,23.00
2022-09-07T08:08:58.571Z,23.10
2022-09-07T08:11:31.229Z,23.20
2022-09-07T08:14:06.225Z,23.20
2022-09-07T08:16:37.748Z,23.40
2022-09-07T08:19:08.959Z,23.50
2022-09-07T08:21:39.974Z,23.60
2022-09-07T08:24:10.928Z,23.60
2022-09-07T08:26:41.889Z,23.70
2022-09-07T08:29:13.270Z,23.70
2022-09-07T08:31:44.749Z,23.80
2022-09-07T08:34:16.234Z,23.90
2022-09-07T08:36:47.388Z,23.90
2022-09-07T08:39:18.444Z,24.00
2022-09-07T08:42:29.448Z,24.20
2022-09-07T08:45:17.395Z,24.20
2022-09-07T08:47:51.691Z,24.10
2022-09-07T08:50:33.850Z,24.20
2022-09-07T08:53:16.078Z,24.20
2022-09-07T08:55:57.081Z,24.20
2022-09-07T08:58:49.835Z,24.30
2022-09-07T09:01:31.632Z,24.40
2022-09-07T09:04:20.395Z,24.40
2022-09-07T09:07:31.708Z,24.40
2022-09-07T09:10:39.349Z,24.50
2022-09-07T09:13:24.209Z,24.60
2022-09-07T09:16:14.680Z,24.70
2022-09-07T09:19:12.251Z,24.70
2022-09-07T09:21:43.767Z,24.70
2022-09-07T09:24:31.054Z,24.80
2022-09-07T09:27:02.075Z,24.80
2022-09-07T09:29:34.096Z,24.80
2022-09-07T09:32:34.612Z,24.90
2022-09-07T09:35:23.577Z,25.00
2022-09-07T09:37:54.605Z,25.20
2022-09-07T09:40:30.935Z,25.30
2022-09-07T09:43:24.956Z,25.50
2022-09-07T09:46:13.681Z,25.60
2022-09-07T09:48:54.189Z,25.80
2022-09-07T09:54:38.795Z,25.60
2022-09-07T10:01:23.072Z,26.10
2022-09-07T10:06:30.174Z,26.20
2022-09-07T10:09:02.535Z,26.20
2022-09-07T10:14:44.762Z,26.10
2022-09-07T10:17:37.938Z,26.20
2022-09-07T10:20:17.597Z,26.10
2022-09-07T10:22:54.617Z,26.20
2022-09-07T10:25:39.751Z,26.30
2022-09-07T10:28:11.438Z,26.50
2022-09-07T10:31:15.283Z,26.70
2022-09-07T10:37:11.258Z,26.70
2022-09-07T10:39:48.534Z,26.80
2022-09-07T10:42:30.566Z,26.80
2022-09-07T10:45:47.394Z,26.70
2022-09-07T10:48:51.194Z,26.70
2022-09-07T10:51:52.570Z,26.70
2022-09-07T10:54:55.940Z,26.50
2022-09-07T10:57:33.070Z,26.60
2022-09-07T11:00:18.568Z,26.60
2022-09-07T11:03:26.448Z,26.50
2022-09-07T11:06:17.975Z,26.50
2022-09-07T11:09:23.097Z,26.40
2022-09-07T11:12:01.965Z,26.30
2022-09-07T11:14:44.819Z,26.30
2022-09-07T11:17:28.324Z,26.20
2022-09-07T11:20:38.871Z,26.20
2022-09-07T11:23:40.885Z,26.10
2022-09-07T11:26:25.784Z,26.20
2022-09-07T11:29:30.729Z,26.80
2022-09-07T11:32:23.913Z,27.50
2022-09-07T11:35:09.794Z,27.90
2022-09-07T11:37:59.380Z,28.30
2022-09-07T11:41:06.482Z,29.10
2022-09-07T11:43:45.365Z,29.40
2022-09-07T11:46:32.659Z,29.70
2022-09-07T11:49:11.030Z,29.70
2022-09-07T11:52:08.658Z,29.90
2022-09-07T11:54:47.071Z,29.80
2022-09-07T11:57:45.215Z,29.80
2022-09-07T12:00:23.420Z,29.90
2022-09-07T12:03:16.090Z,30.20
2022-09-07T12:06:00.520Z,30.20
2022-09-07T12:09:06.337Z,30.10
2022-09-07T12:12:07.198Z,30.40
2022-09-07T12:14:56.040Z,30.60
2022-09-07T12:17:54.912Z,30.80
2022-09-07T12:20:58.495Z,31.20
2022-09-07T12:23:33.880Z,30.90
2022-09-07T12:26:40.069Z,31.00
2022-09-07T12:29:23.988Z,31.20
2022-09-07T12:32:53.756Z,31.30
2022-09-07T12:34:57.979Z,31.10
2022-09-07T12:37:39.144Z,30.70
2022-09-07T12:40:39.498Z,30.20
2022-09-07T12:43:13.494Z,29.90
2022-09-07T12:45:47.578Z,29.70
2022-09-07T12:48:18.431Z,29.50
2022-09-07T12:55:26.627Z,29.80
2022-09-07T12:58:16.300Z,30.10
2022-09-07T13:01:35.848Z,30.30
2022-09-07T13:04:42.313Z,30.30
2022-09-07T13:07:29.915Z,30.50
2022-09-07T13:10:04.836Z,30.70
2022-09-07T13:12:57.470Z,30.80
2022-09-07T13:16:13.872Z,30.90
2022-09-07T13:18:46.453Z,31.00
2022-09-07T13:21:18.458Z,31.10
2022-09-07T13:27:28.780Z,30.80
2022-09-07T13:30:22.734Z,30.80
2022-09-07T13:33:25.950Z,30.90
2022-09-07T13:36:05.157Z,31.00
2022-09-07T13:38:36.896Z,31.20
2022-09-07T13:41:15.999Z,31.30
2022-09-07T13:43:48.985Z,31.60
2022-09-07T13:46:50.698Z,31.40
2022-09-07T13:49:38.553Z,31.60
2022-09-07T13:52:35.818Z,31.40
2022-09-07T13:55:27.236Z,31.20
2022-09-07T13:58:22.312Z,30.90
2022-09-07T14:01:21.283Z,31.20
2022-09-07T14:04:09.313Z,31.30
2022-09-07T14:06:40.201Z,31.50
2022-09-07T14:09:21.523Z,31.50
2022-09-07T14:11:56.698Z,31.70
2022-09-07T14:14:31.071Z,32.00
2022-09-07T14:17:02.353Z,31.90
2022-09-07T14:19:41.371Z,32.00
2022-09-07T14:22:20.245Z,32.20
2022-09-07T14:24:53.871Z,32.20
2022-09-07T14:27:38.719Z,32.30
2022-09-07T14:30:33.254Z,32.40
2022-09-07T14:33:17.411Z,32.40
2022-09-07T14:35:49.073Z,32.50
2022-09-07T14:41:22.358Z,32.10
2022-09-07T14:43:59.160Z,32.00
2022-09-07T14:46:34.564Z,32.00
2022-09-07T14:49:20.017Z,31.80
2022-09-07T14:51:53.762Z,31.30
2022-09-07T14:54:34.214Z,31.20
2022-09-07T14:57:30.682Z,30.90
2022-09-07T15:00:31.678Z,30.90
2022-09-07T15:03:42.749Z,30.50
2022-09-07T15:09:37.364Z,29.90
2022-09-07T15:12:38.342Z,30.00
2022-09-07T15:15:26.730Z,30.10
2022-09-07T15:18:07.488Z,29.90
2022-09-07T15:20:45.638Z,30.10
2022-09-07T15:23:19.569Z,30.30
2022-09-07T15:25:53.632Z,30.30
2022-09-07T15:34:18.527Z,30.10
2022-09-07T15:36:52.265Z,29.90
2022-09-07T15:39:29.656Z,29.60
2022-09-07T15:42:59.626Z,29.60
2022-09-07T15:44:53.524Z,29.60
2022-09-07T15:50:15.325Z,29.50
2022-09-07T15:52:46.807Z,29.60
2022-09-07T15:55:17.925Z,29.40
2022-09-07T15:57:52.766Z,29.20
2022-09-07T16:00:27.999Z,29.00
2022-09-07T16:03:08.176Z,28.80
2022-09-07T16:05:44.452Z,28.80
2022-09-07T16:11:23.880Z,28.70
2022-09-07T16:14:02.093Z,28.50
2022-09-07T16:19:24.594Z,28.60
2022-09-07T16:21:57.435Z,28.80
2022-09-07T16:24:28.920Z,29.00
2022-09-07T16:27:00.456Z,29.00
2022-09-07T16:29:31.864Z,29.20
2022-09-07T16:34:54.449Z,29.10
2022-09-07T16:37:25.622Z,29.10
2022-09-07T16:39:56.776Z,28.90
2022-09-07T16:42:30.416Z,28.60
2022-09-07T16:47:57.301Z,28.40
2022-09-07T16:50:28.317Z,28.40
2022-09-07T16:52:59.146Z,28.30
2022-09-07T16:55:30.374Z,28.10
2022-09-07T17:00:52.185Z,27.90
2022-09-07T17:03:23.186Z,27.80
2022-09-07T17:05:54.680Z,27.60
2022-09-07T17:08:25.981Z,27.50
2022-09-07T17:11:10.077Z,27.50
2022-09-07T17:13:43.039Z,27.30
2022-09-07T17:16:17.225Z,27.10
2022-09-07T17:21:40.809Z,27.00
2022-09-07T17:24:12.453Z,27.00
2022-09-07T17:26:43.727Z,27.10
2022-09-07T17:29:14.944Z,26.90
2022-09-07T17:34:36.879Z,26.80
2022-09-07T17:37:08.317Z,26.70
2022-09-07T17:39:40.317Z,26.50
2022-09-07T17:42:11.326Z,26.60
2022-09-07T17:44:42.437Z,26.60
2022-09-07T17:47:13.755Z,26.60
2022-09-07T17:49:45.741Z,26.70
2022-09-07T17:52:16.897Z,26.50
2022-09-07T17:54:47.854Z,26.40
2022-09-07T17:57:19.150Z,26.50
2022-09-07T18:02:41.342Z,26.70
2022-09-07T18:05:12.753Z,26.50
2022-09-07T18:07:43.739Z,26.40
2022-09-07T18:10:15.178Z,26.20
2022-09-07T18:12:46.156Z,26.30
2022-09-07T18:15:18.653Z,26.20
2022-09-07T18:17:49.797Z,26.10
2022-09-07T18:20:23.111Z,25.90
2022-09-07T18:22:54.205Z,25.50
2022-09-07T18:25:25.607Z,25.30
2022-09-07T18:30:49.088Z,25.10
2022-09-07T18:33:20.329Z,25.00
2022-09-07T18:35:51.206Z,24.90
2022-09-07T18:38:22.345Z,24.90
2022-09-07T18:41:05.149Z,25.00
2022-09-07T18:43:39.104Z,24.90
2022-09-07T18:46:15.869Z,24.60
2022-09-07T18:48:47.332Z,24.40
2022-09-07T18:51:19.640Z,24.20
2022-09-07T18:53:50.691Z,24.10
2022-09-07T18:56:22.376Z,24.20
2022-09-07T18:58:57.336Z,24.20
2022-09-07T19:01:29.040Z,24.20
2022-09-07T19:04:00.404Z,24.20
2022-09-07T19:06:31.846Z,24.10
2022-09-07T19:09:04.621Z,24.00
2022-09-07T19:11:35.655Z,24.00
2022-09-07T19:14:06.966Z,23.80
2022-09-07T19:16:38.514Z,23.70
2022-09-07T19:19:12.077Z,23.70
2022-09-07T19:21:43.449Z,23.60
2022-09-07T19:24:17.857Z,23.70
2022-09-07T19:26:50.280Z,23.60
2022-09-07T19:29:23.370Z,23.50
2022-09-07T19:32:04.381Z,23.20
2022-09-07T19:34:38.693Z,23.30
2022-09-07T19:37:12.967Z,23.40
2022-09-07T19:39:44.059Z,23.60
2022-09-07T19:42:15.174Z,23.70
2022-09-07T19:44:46.509Z,23.50
2022-09-07T19:47:17.957Z,23.40
2022-09-07T19:49:48.977Z,23.30
2022-09-07T19:52:20.311Z,23.30
2022-09-07T19:54:51.579Z,23.20
2022-09-07T19:57:22.576Z,23.20
2022-09-07T19:59:56.719Z,23.10
2022-09-07T20:02:27.695Z,23.10
2022-09-07T20:04:59.126Z,23.30
2022-09-07T20:07:30.173Z,23.40
2022-09-07T20:10:01.101Z,23.30
2022-09-07T20:12:32.293Z,23.10
2022-09-07T20:15:03.688Z,23.00
2022-09-07T20:17:35.638Z,22.80
2022-09-07T20:20:07.700Z,22.70
2022-09-07T20:22:38.983Z,22.70
2022-09-07T20:25:13.093Z,22.60
2022-09-07T20:27:44.356Z,22.70
2022-09-07T20:30:17.721Z,22.60
2022-09-07T20:32:48.669Z,22.60
2022-09-07T20:35:19.845Z,22.50
2022-09-07T20:37:51.044Z,22.30
2022-09-07T20:40:22.417Z,22.30
2022-09-07T20:42:53.569Z,22.30
2022-09-07T20:45:28.544Z,22.20
2022-09-07T20:48:02.444Z,22.30
2022-09-07T20:50:33.844Z,22.30
2022-09-07T20:53:05.136Z,22.20
2022-09-07T20:55:36.273Z,22.20
2022-09-07T20:58:07.212Z,22.10
2022-09-07T21:00:38.416Z,22.10
2022-09-07T21:03:10.677Z,22.00
2022-09-07T21:05:41.564Z,22.00
2022-09-07T21:08:13.244Z,21.80
2022-09-07T21:10:46.862Z,21.80
2022-09-07T21:13:17.863Z,21.80
2022-09-07T21:15:49.166Z,21.80
2022-09-07T21:18:20.289Z,21.70
2022-09-07T21:21:18.813Z,21.80
2022-09-07T21:24:00.206Z,21.70
2022-09-07T21:26:32.719Z,21.80
2022-09-07T21:29:05.368Z,21.80
2022-09-07T21:31:36.347Z,22.00
2022-09-07T21:34:07.362Z,22.20
2022-09-07T21:36:38.218Z,22.30
2022-09-07T21:39:12.549Z,22.30
2022-09-07T21:41:45.600Z,22.30
2022-09-07T21:44:16.802Z,22.50
2022-09-07T21:46:47.736Z,22.40
2022-09-07T21:49:18.606Z,22.50
2022-09-07T21:51:49.539Z,22.50
2022-09-07T21:54:20.398Z,22.40
2022-09-07T21:56:53.229Z,22.40
2022-09-07T21:59:24.174Z,22.40
2022-09-07T22:01:55.145Z,22.40
2022-09-07T22:04:26.064Z,22.40
2022-09-07T22:06:56.912Z,22.30
2022-09-07T22:09:27.804Z,22.50
2022-09-07T22:12:00.019Z,22.40
2022-09-07T22:14:30.983Z,22.40
2022-09-07T22:17:02.455Z,22.40
2022-09-07T22:19:33.343Z,22.40
2022-09-07T22:22:04.402Z,22.20
2022-09-07T22:24:35.268Z,22.10
2022-09-07T22:27:06.191Z,22.10
2022-09-07T22:29:37.109Z,22.10
2022-09-07T22:32:08.032Z,22.10
2022-09-07T22:34:38.892Z,22.30
2022-09-07T22:37:10.381Z,22.20
2022-09-07T22:39:41.274Z,22.20
2022-09-07T22:42:12.153Z,22.10
2022-09-07T22:44:43.193Z,21.90
2022-09-07T22:47:14.047Z,21.90
2022-09-07T22:49:44.914Z,21.80
2022-09-07T22:52:15.775Z,21.80
2022-09-07T22:54:46.650Z,21.80
2022-09-07T22:57:17.609Z,21.90
2022-09-07T22:59:48.460Z,22.10
2022-09-07T23:02:19.358Z,22.20
2022-09-07T23:04:50.273Z,22.10
2022-09-07T23:07:21.947Z,21.90
2022-09-07T23:09:52.817Z,21.80
2022-09-07T23:12:23.682Z,21.90
2022-09-07T23:14:54.520Z,21.90
2022-09-07T23:17:25.356Z,21.90
2022-09-07T23:19:56.218Z,22.00
2022-09-07T23:22:27.192Z,21.90
2022-09-07T23:24:58.044Z,21.80
2022-09-07T23:27:28.985Z,21.80
2022-09-07T23:29:59.907Z,21.80
2022-09-07T23:32:31.103Z,21.70
2022-09-07T23:35:03.418Z,21.70
2022-09-07T23:37:34.458Z,21.50
2022-09-07T23:40:06.477Z,21.40
2022-09-07T23:42:37.359Z,21.30
2022-09-07T23:45:09.137Z,21.30
2022-09-07T23:47:40.162Z,21.30
2022-09-07T23:50:11.341Z,21.20
2022-09-07T23:52:42.387Z,21.30
2022-09-07T23:55:13.386Z,21.40
2022-09-07T23:57:44.219Z,21.50
